Latest Weather Observations for Inner Beacon

IDQ60801

Issued at 8:52 am EST Wednesday 26 September 2018 (issued every 10 minutes, with the page automatically refreshed every 10 minutes)

About weather observations | Map of weather stations | Latest weather observations for QLD | Other Formats
Station Details ID: 040926 Name: INNER RECIPROCAL MARKER Lat: -27.26 Lon: 153.24 Height: 20.0 m
Data from the previous 72 hours. | See also: Recent months for locations in Queensland
Date/Time
EST
Temp
°C
App
Temp
°C
Dew
Point
°C
Rel
Hum
%
Delta-T
°C
Wind Press
QNH
hPa
Press
MSL
hPa
Rain since
9am
mm
Dir  Spd
km/h
Gust
km/h
Spd
kts
Gust
kts
26/08:30am - - - - - S 9 11 5 6 - - -
26/08:00am - - - - - SSW 13 15 7 8 - - -
26/07:30am - - - - - SSW 15 20 8 11 - - -
26/07:00am - - - - - S 15 17 8 9 - - -
26/06:30am - - - - - S 17 20 9 11 - - -
26/06:00am - - - - - SSW 24 28 13 15 - - -
26/05:30am - - - - - S 19 22 10 12 - - -
26/05:00am - - - - - S 17 19 9 10 - - -
26/04:30am - - - - - SSE 11 13 6 7 - - -
26/04:00am - - - - - SE 13 15 7 8 - - -
26/03:30am - - - - - SE 15 17 8 9 - - -
26/03:00am - - - - - SSE 13 19 7 10 - - -
26/02:30am - - - - - SSE 15 19 8 10 - - -
26/02:00am - - - - - E 7 9 4 5 - - -
26/01:30am - - - - - ENE 9 13 5 7 - - -
26/01:00am - - - - - ENE 9 11 5 6 - - -
26/12:30am - - - - - ENE 9 13 5 7 - - -
26/12:00am - - - - - NE 15 17 8 9 - - -
 
Date/Time
EST
Temp
°C
App
Temp
°C
Dew
Point
°C
Rel
Hum
%
Delta-T
°C
Wind Press
QNH
hPa
Press
MSL
hPa
Rain since
9am
mm
Dir  Spd
km/h
Gust
km/h
Spd
kts
Gust
kts
25/11:30pm - - - - - ENE 13 17 7 9 - - -
25/11:00pm - - - - - ENE 19 20 10 11 - - -
25/10:30pm - - - - - E 20 28 11 15 - - -
25/10:00pm - - - - - E 19 24 10 13 - - -
25/09:30pm - - - - - ESE 17 20 9 11 - - -
25/09:00pm - - - - - E 15 17 8 9 - - -
25/08:30pm - - - - - E 20 24 11 13 - - -
25/08:00pm - - - - - SSE 19 22 10 12 - - -
25/07:30pm - - - - - SE 19 24 10 13 - - -
25/07:00pm - - - - - SE 22 28 12 15 - - -
25/06:30pm - - - - - ESE 19 20 10 11 - - -
25/06:00pm - - - - - ESE 19 24 10 13 - - -
25/05:30pm - - - - - ESE 26 32 14 17 - - -
25/05:00pm - - - - - SE 26 32 14 17 - - -
25/04:30pm - - - - - SE 28 32 15 17 - - -
25/04:00pm - - - - - SE 30 33 16 18 - - -
25/03:30pm - - - - - SE 30 35 16 19 - - -
25/03:00pm - - - - - SE 30 33 16 18 - - -
25/02:30pm - - - - - SE 32 35 17 19 - - -
25/02:00pm - - - - - SSE 26 32 14 17 - - -
25/01:30pm - - - - - SSE 30 35 16 19 - - -
25/01:00pm - - - - - SSE 28 35 15 19 - - -
25/12:30pm - - - - - SSE 26 32 14 17 - - -
25/12:00pm - - - - - SSE 28 33 15 18 - - -
25/11:30am - - - - - SSE 20 32 11 17 - - -
25/11:00am - - - - - SSE 20 24 11 13 - - -
25/10:30am - - - - - SSE 20 28 11 15 - - -
25/10:00am - - - - - SSE 19 24 10 13 - - -
25/09:30am - - - - - S 28 32 15 17 - - -
25/09:00am - - - - - S 30 37 16 20 - - -
25/08:30am - - - - - S 30 35 16 19 - - -
25/08:00am - - - - - S 32 37 17 20 - - -
25/07:30am - - - - - S 32 39 17 21 - - -
25/07:00am - - - - - S 30 33 16 18 - - -
25/06:30am - - - - - S 28 37 15 20 - - -
25/06:00am - - - - - S 22 30 12 16 - - -
25/05:30am - - - - - SSW 19 24 10 13 - - -
25/05:00am - - - - - S 24 32 13 17 - - -
25/04:30am - - - - - SSE 28 35 15 19 - - -
25/04:00am - - - - - S 26 33 14 18 - - -
25/03:30am - - - - - S 32 39 17 21 - - -
25/03:00am - - - - - S 32 39 17 21 - - -
25/02:30am - - - - - SSE 37 44 20 24 - - -
25/02:00am - - - - - S 33 41 18 22 - - -
25/01:30am - - - - - SSE 33 41 18 22 - - -
25/01:00am - - - - - S 32 35 17 19 - - -
25/12:30am - - - - - S 28 33 15 18 - - -
25/12:00am - - - - - S 33 43 18 23 - - -
 
Date/Time
EST
Temp
°C
App
Temp
°C
Dew
Point
°C
Rel
Hum
%
Delta-T
°C
Wind Press
QNH
hPa
Press
MSL
hPa
Rain since
9am
mm
Dir  Spd
km/h
Gust
km/h
Spd
kts
Gust
kts
24/11:30pm - - - - - S 35 41 19 22 - - -
24/11:00pm - - - - - S 30 35 16 19 - - -
24/10:30pm - - - - - S 35 43 19 23 - - -
24/10:00pm - - - - - SSE 35 41 19 22 - - -
24/09:30pm - - - - - SSE 32 39 17 21 - - -
24/09:00pm - - - - - SSE 35 44 19 24 - - -
24/08:30pm - - - - - SE 30 33 16 18 - - -
24/08:00pm - - - - - SE 33 39 18 21 - - -
24/07:30pm - - - - - SE 39 48 21 26 - - -
24/07:00pm - - - - - SE 33 41 18 22 - - -
24/06:30pm - - - - - ESE 35 43 19 23 - - -
24/06:00pm - - - - - SE 37 44 20 24 - - -
24/05:30pm - - - - - SSE 44 54 24 29 - - -
24/05:00pm - - - - - SE 35 44 19 24 - - -
24/04:30pm - - - - - SE 37 44 20 24 - - -
24/04:00pm - - - - - SE 44 54 24 29 - - -
24/03:30pm - - - - - SSE 39 46 21 25 - - -
24/03:00pm - - - - - SSE 37 44 20 24 - - -
24/02:30pm - - - - - SE 35 43 19 23 - - -
24/02:00pm - - - - - SE 33 39 18 21 - - -
24/01:52pm - - - - - SE 32 39 17 21 - - -
24/01:30pm - - - - - SE 15 20 8 11 - - -
24/01:00pm - - - - - ESE 13 19 7 10 - - -
24/12:30pm - - - - - ESE 15 17 8 9 - - -
24/12:00pm - - - - - SE 11 13 6 7 - - -
24/11:30am - - - - - SSE 13 17 7 9 - - -
24/11:00am - - - - - SSE 17 19 9 10 - - -
24/10:30am - - - - - SSE 19 20 10 11 - - -
24/10:00am - - - - - SSE 20 22 11 12 - - -
24/09:30am - - - - - SSE 22 24 12 13 - - -
24/09:00am - - - - - SSE 19 22 10 12 - - -
24/08:30am - - - - - S 15 17 8 9 - - -
24/08:00am - - - - - S 17 19 9 10 - - -
24/07:30am - - - - - S 15 17 8 9 - - -
24/07:00am - - - - - S 13 15 7 8 - - -
24/06:30am - - - - - S 15 17 8 9 - - -
24/06:00am - - - - - SSE 17 19 9 10 - - -
24/05:30am - - - - - S 17 19 9 10 - - -
24/05:00am - - - - - SSE 15 17 8 9 - - -
24/04:30am - - - - - S 9 13 5 7 - - -
24/04:00am - - - - - SE 7 9 4 5 - - -
24/03:30am - - - - - SE 4 6 2 3 - - -
24/03:00am - - - - - SSE 4 6 2 3 - - -
24/02:30am - - - - - SE 2 4 1 2 - - -
24/02:00am - - - - - E 2 4 1 2 - - -
24/01:30am - - - - - ESE 4 6 2 3 - - -
24/01:00am - - - - - E 4 6 2 3 - - -
24/12:30am - - - - - NE 6 6 3 3 - - -
24/12:00am - - - - - ENE 6 6 3 3 - - -
 
Date/Time
EST
Temp
°C
App
Temp
°C
Dew
Point
°C
Rel
Hum
%
Delta-T
°C
Wind Press
QNH
hPa
Press
MSL
hPa
Rain since
9am
mm
Dir  Spd
km/h
Gust
km/h
Spd
kts
Gust
kts
23/11:30pm - - - - - ENE 6 7 3 4 - - -
23/11:00pm - - - - - NE 7 9 4 5 - - -
23/10:30pm - - - - - NE 9 11 5 6 - - -
23/10:00pm - - - - - NE 9 11 5 6 - - -
23/09:30pm - - - - - NE 11 13 6 7 - - -
23/09:00pm - - - - - NNE 11 13 6 7 - - -
23/08:30pm - - - - - NNE 11 13 6 7 - - -
23/08:00pm - - - - - NNE 13 15 7 8 - - -
23/07:30pm - - - - - N 11 13 6 7 - - -
23/07:00pm - - - - - NNE 9 13 5 7 - - -
23/06:30pm - - - - - NE 15 17 8 9 - - -
23/06:00pm - - - - - NE 19 22 10 12 - - -
23/05:30pm - - - - - NE 17 20 9 11 - - -
23/05:00pm - - - - - NE 15 19 8 10 - - -
23/04:30pm - - - - - NE 20 24 11 13 - - -
23/04:00pm - - - - - NE 24 26 13 14 - - -
23/03:30pm - - - - - NE 20 26 11 14 - - -
23/03:00pm - - - - - NNE 15 17 8 9 - - -
23/02:30pm - - - - - NNE 15 19 8 10 - - -
23/02:00pm - - - - - NE 17 17 9 9 - - -
23/01:30pm - - - - - NE 15 17 8 9 - - -
23/01:00pm - - - - - NE 11 13 6 7 - - -
23/12:30pm - - - - - NE 9 11 5 6 - - -
23/12:00pm - - - - - ENE 7 9 4 5 - - -
23/11:30am - - - - - ENE 2 4 1 2 - - -
23/11:00am - - - - - CALM 0 0 0 0 - - -
23/10:30am - - - - - SW 2 4 1 2 - - -
23/10:00am - - - - - SW 4 6 2 3 - - -
23/09:30am - - - - - SW 6 7 3 4 - - -
23/09:00am - - - - - SW 6 9 3 5 - - -

Other Formats:

Comma delimited format used in spreadsheet applications
http://www.bom.gov.au/fwo/IDQ60801/IDQ60801.94590.axf

JavaScript Object Notation format (JSON) in row-major order
http://www.bom.gov.au/fwo/IDQ60801/IDQ60801.94590.json